Time;durP1;ratioP1;P1;durP2;ratioP2;P2;SDS_P1;SDS_P2;PMS_P1;PMS_P2;Temp;Humidity;BMP_temperature;BMP_pressure;BME280_temperature;BME280_humidity;BME280_pressure;Samples;Min_cycle;Max_cycle;Signal;HPM_P1;HPM_P2
2022/06/20 00:02:22;;;;;;;7.63;2.40;;;;;;;21.21;55.84;99647.75;4951154;28;20142;-74
2022/06/20 00:04:50;;;;;;;4.68;1.95;;;;;;;21.21;56.00;99653.13;4948166;28;20043;-74
2022/06/20 00:07:17;;;;;;;7.63;2.50;;;;;;;21.24;55.94;99661.75;4947478;28;20054;-76
2022/06/20 00:09:45;;;;;;;9.45;2.83;;;;;;;21.24;56.04;99660.91;4947425;28;20500;-75
2022/06/20 00:12:18;;;;;;;5.60;2.33;;;;;;;21.14;55.98;99633.19;4949112;28;20162;-75
2022/06/20 00:14:47;;;;;;;7.50;2.40;;;;;;;21.15;56.07;99643.78;4963467;28;20514;-74
2022/06/20 00:17:14;;;;;;;5.97;2.15;;;;;;;21.19;55.85;99644.31;4965882;28;20094;-74
2022/06/20 00:19:42;;;;;;;6.82;2.58;;;;;;;21.11;56.41;99636.19;4969131;28;20064;-74
2022/06/20 00:22:10;;;;;;;11.38;2.42;;;;;;;21.06;56.41;99633.13;4971822;28;20089;-75
2022/06/20 00:24:37;;;;;;;10.45;2.53;;;;;;;21.03;56.59;99628.91;4967132;28;20077;-74
2022/06/20 00:27:06;;;;;;;6.07;2.33;;;;;;;21.03;56.57;99626.22;4964613;28;20055;-75
2022/06/20 00:29:34;;;;;;;7.32;2.22;;;;;;;20.96;56.54;99619.75;4967937;28;20082;-74
2022/06/20 00:32:02;;;;;;;6.10;2.47;;;;;;;20.84;56.76;99615.63;4967778;28;20624;-74
2022/06/20 00:34:29;;;;;;;5.22;2.22;;;;;;;20.92;57.11;99634.56;4967114;28;20058;-74
2022/06/20 00:36:56;;;;;;;6.63;2.50;;;;;;;20.91;57.16;99630.16;4969316;28;20058;-74
2022/06/20 00:39:23;;;;;;;7.90;2.80;;;;;;;20.77;57.16;99626.19;4966507;28;20058;-75
2022/06/20 00:41:50;;;;;;;8.38;2.38;;;;;;;20.67;57.94;99625.41;4966051;28;20510;-74
2022/06/20 00:44:25;;;;;;;4.03;2.28;;;;;;;20.75;57.51;99635.41;4962390;28;20097;-73
2022/06/20 00:46:57;;;;;;;8.32;2.28;;;;;;;20.66;57.64;99634.47;4965971;28;20519;-75
2022/06/20 00:49:30;;;;;;;5.90;2.22;;;;;;;20.63;57.59;99632.94;4950235;28;20043;-75
2022/06/20 00:52:29;;;;;;;5.40;2.47;;;;;;;20.45;57.56;99618.69;4969370;28;20059;-74
2022/06/20 00:55:11;;;;;;;6.68;2.30;;;;;;;20.49;57.54;99629.94;4959898;28;20050;-73
2022/06/20 00:57:44;;;;;;;6.30;2.30;;;;;;;20.24;58.04;99607.34;4964700;28;20066;-73
2022/06/20 01:00:15;;;;;;;6.28;2.00;;;;;;;20.36;58.04;99646.47;4968720;28;20047;-75
2022/06/20 01:02:51;;;;;;;7.88;2.67;;;;;;;20.32;58.06;99653.97;4964773;28;20162;-74
2022/06/20 01:05:31;;;;;;;3.60;2.15;;;;;;;20.26;57.81;99657.28;4964551;28;20077;-74
2022/06/20 01:08:09;;;;;;;8.63;2.33;;;;;;;20.29;57.36;99677.63;4969177;28;20050;-74
2022/06/20 01:10:58;;;;;;;4.60;2.20;;;;;;;20.26;57.70;99675.25;4948828;28;20130;-74
2022/06/20 01:13:26;;;;;;;6.53;2.40;;;;;;;20.22;57.64;99676.53;4963733;28;20046;-74
2022/06/20 01:16:13;;;;;;;8.25;2.20;;;;;;;20.17;57.46;99676.97;5077166;27;20627;-73
2022/06/20 01:18:43;;;;;;;4.75;2.13;;;;;;;20.13;57.41;99674.75;5063549;28;20052;-73
2022/06/20 01:21:15;;;;;;;5.70;2.33;;;;;;;20.18;57.66;99672.44;5057165;28;20057;-73
2022/06/20 01:23:47;;;;;;;5.78;2.33;;;;;;;20.23;56.84;99678.22;5039607;28;20077;-74
2022/06/20 01:26:51;;;;;;;5.25;1.92;;;;;;;20.16;56.80;99683.34;5043412;28;20118;-74
2022/06/20 01:29:18;;;;;;;7.40;2.10;;;;;;;20.02;57.16;99685.69;5038572;28;20160;-74
2022/06/20 01:31:49;;;;;;;8.23;2.75;;;;;;;20.01;57.24;99700.13;5044651;28;20130;-73
2022/06/20 01:34:18;;;;;;;10.85;2.60;;;;;;;19.98;57.51;99695.06;5056227;28;20090;-74
2022/06/20 01:39:37;;;;;;;6.05;2.15;;;;;;;19.82;57.54;99707.31;5040599;28;20060;-74
2022/06/20 01:42:18;;;;;;;5.07;2.40;;;;;;;19.77;57.57;99716.78;5043714;28;20072;-74
2022/06/20 01:45:05;;;;;;;7.40;1.95;;;;;;;19.78;58.00;99807.13;5054747;28;20071;-74
2022/06/20 01:47:31;;;;;;;7.57;2.35;;;;;;;19.79;58.27;99849.13;5042109;28;20128;-74
2022/06/20 01:50:03;;;;;;;5.35;2.10;;;;;;;19.76;58.61;99834.16;5040787;28;20115;-75
2022/06/20 01:52:48;;;;;;;7.43;2.67;;;;;;;19.83;58.91;99878.25;5045215;28;20053;-73
2022/06/20 01:55:20;;;;;;;6.07;2.40;;;;;;;19.83;58.87;99874.72;5057687;28;20929;-74
2022/06/20 01:57:50;;;;;;;6.55;2.13;;;;;;;19.85;58.66;99844.00;5043814;28;20072;-73
2022/06/20 02:00:20;;;;;;;3.33;2.05;;;;;;;19.93;58.66;99872.88;5041048;28;20049;-74
2022/06/20 02:02:58;;;;;;;3.90;2.13;;;;;;;20.05;58.55;99863.63;5042236;28;20048;-74
2022/06/20 02:05:28;;;;;;;6.40;2.13;;;;;;;20.02;58.44;99860.38;5043131;28;20067;-74
2022/06/20 02:08:00;;;;;;;6.15;2.25;;;;;;;20.12;58.08;99874.66;5054603;28;20796;-75
2022/06/20 02:11:01;;;;;;;6.18;2.63;;;;;;;20.12;57.86;99912.31;5037258;28;20104;-74
2022/06/20 02:13:32;;;;;;;9.15;2.47;;;;;;;19.89;57.82;99864.25;5052885;28;20095;-73
2022/06/20 02:16:04;;;;;;;7.35;2.58;;;;;;;20.03;57.98;99878.22;5040177;28;20195;-74
2022/06/20 02:18:33;;;;;;;5.03;1.83;;;;;;;19.94;58.51;99875.41;5060378;28;20052;-74
2022/06/20 02:21:05;;;;;;;7.10;2.40;;;;;;;19.95;58.35;99834.13;5057059;28;20049;-73
2022/06/20 02:23:35;;;;;;;6.22;2.22;;;;;;;20.00;59.90;99849.78;5043750;28;20052;-73
2022/06/20 02:26:06;;;;;;;6.85;2.53;;;;;;;19.90;60.35;99833.69;5036293;28;20485;-73
2022/06/20 02:28:40;;;;;;;10.68;2.95;;;;;;;19.66;60.58;99771.53;5024091;28;20045;-73
2022/06/20 02:31:08;;;;;;;7.18;2.95;;;;;;;19.94;60.96;99799.31;5024945;28;20497;-74
2022/06/20 02:33:36;;;;;;;7.45;2.83;;;;;;;19.98;61.15;99778.38;5040471;28;20062;-72
2022/06/20 02:36:05;;;;;;;8.05;2.97;;;;;;;19.99;60.91;99788.16;5040835;28;20106;-73
2022/06/20 02:38:33;;;;;;;6.88;2.65;;;;;;;20.02;60.56;99777.06;5034659;28;20564;-74
2022/06/20 02:41:00;;;;;;;8.25;3.20;;;;;;;20.02;60.75;99793.19;5037836;28;20115;-75
2022/06/20 02:44:04;;;;;;;8.23;2.75;;;;;;;20.07;60.91;99782.88;5031318;28;20542;-75
2022/06/20 02:46:31;;;;;;;9.90;2.80;;;;;;;20.07;60.76;99764.03;5013401;28;20071;-75
2022/06/20 02:49:02;;;;;;;5.93;2.30;;;;;;;20.08;60.68;99749.63;5027246;28;20084;-74
2022/06/20 02:51:37;;;;;;;7.18;2.60;;;;;;;20.06;60.64;99739.00;5028117;28;20062;-73
2022/06/20 02:54:07;;;;;;;11.48;2.88;;;;;;;19.85;60.73;99722.25;5023455;28;20049;-74
2022/06/20 02:56:42;;;;;;;7.82;2.80;;;;;;;20.05;60.79;99755.28;5031481;28;20065;-74
2022/06/20 02:59:18;;;;;;;6.20;2.15;;;;;;;20.01;60.74;99752.03;5033393;28;20049;-73
2022/06/20 03:02:02;;;;;;;7.05;2.30;;;;;;;20.04;60.99;99738.31;5023354;28;20045;-73
2022/06/20 03:04:33;;;;;;;8.65;2.30;;;;;;;20.07;60.11;99721.03;5025717;28;20103;-73
2022/06/20 03:07:02;;;;;;;;;;;;;;;20.12;59.92;99718.75;5032060;28;20068;-73
2022/06/20 03:09:32;;;;;;;6.20;2.28;;;;;;;19.95;59.71;99686.31;5025728;28;19947;-74
2022/06/20 03:12:02;;;;;;;4.57;2.42;;;;;;;19.94;60.12;99706.13;5027555;28;20370;-73
2022/06/20 03:14:33;;;;;;;6.25;2.47;;;;;;;19.76;60.88;99699.81;5018522;28;20160;-73
2022/06/20 03:17:02;;;;;;;6.65;2.47;;;;;;;19.61;61.20;99714.72;5024135;28;20483;-73
2022/06/20 03:19:32;;;;;;;7.38;2.28;;;;;;;19.40;61.84;99706.81;5027946;28;20118;-74
2022/06/20 03:22:05;;;;;;;7.55;2.47;;;;;;;19.47;61.87;99713.31;5029832;28;20132;-74
2022/06/20 03:24:32;;;;;;;8.98;2.45;;;;;;;19.47;62.19;99712.47;5043473;28;20111;-73
2022/06/20 03:27:02;;;;;;;7.78;2.55;;;;;;;19.40;62.00;99714.88;5029057;28;20057;-73
2022/06/20 03:29:29;;;;;;;5.20;2.38;;;;;;;19.32;61.99;99708.56;5025226;28;20038;-73
2022/06/20 03:31:56;;;;;;;8.60;2.35;;;;;;;19.47;61.88;99745.53;5032091;28;20341;-73
2022/06/20 03:34:23;;;;;;;5.70;2.33;;;;;;;19.46;61.47;99745.69;5025224;28;20485;-73
2022/06/20 03:36:51;;;;;;;5.80;1.65;;;;;;;19.44;61.37;99742.28;5023848;28;20663;-73
2022/06/20 03:39:19;;;;;;;6.28;2.20;;;;;;;19.31;61.46;99686.22;5026639;28;20099;-74
2022/06/20 03:41:47;;;;;;;5.68;1.98;;;;;;;19.27;61.82;99674.06;5019867;28;20053;-73
2022/06/20 03:44:20;;;;;;;4.60;2.00;;;;;;;19.17;62.26;99668.75;5022767;28;20072;-73
2022/06/20 03:46:56;;;;;;;6.90;2.10;;;;;;;19.09;61.72;99675.81;5028231;28;20056;-74
2022/06/20 03:49:47;;;;;;;5.90;2.13;;;;;;;18.93;62.25;99687.13;5021742;28;20061;-73
2022/06/20 03:52:20;;;;;;;4.25;1.88;;;;;;;18.84;62.35;99672.72;5045011;28;20077;-73
2022/06/20 03:54:59;;;;;;;3.20;1.85;;;;;;;18.83;62.67;99694.34;5026952;28;20045;-73
2022/06/20 03:57:41;;;;;;;5.60;2.40;;;;;;;18.77;62.81;99708.28;5045688;28;20103;-73
2022/06/20 04:00:14;;;;;;;11.55;2.25;;;;;;;18.66;63.05;99698.56;5028208;28;20041;-73
2022/06/20 04:02:50;;;;;;;7.30;2.28;;;;;;;18.73;63.31;99707.72;5025278;28;20046;-74
2022/06/20 04:05:28;;;;;;;6.68;2.60;;;;;;;18.68;62.89;99687.69;5029707;28;20045;-75
2022/06/20 04:08:10;;;;;;;7.60;2.20;;;;;;;18.70;63.28;99691.94;5026307;28;20135;-73
2022/06/20 04:10:59;;;;;;;4.88;2.30;;;;;;;18.74;62.88;99689.78;5030218;28;20931;-73
2022/06/20 04:13:55;;;;;;;5.10;2.22;;;;;;;18.72;63.28;99678.38;5026415;28;20056;-73
2022/06/20 04:16:29;;;;;;;4.40;1.98;;;;;;;18.83;63.08;99691.66;5023970;28;20049;-74
2022/06/20 04:19:13;;;;;;;3.22;1.85;;;;;;;18.90;62.60;99714.22;5025057;28;20073;-72
2022/06/20 04:21:48;;;;;;;5.05;2.30;;;;;;;18.85;62.47;99706.63;5037591;28;20044;-75
2022/06/20 04:24:33;;;;;;;3.90;1.98;;;;;;;18.93;63.17;99735.41;5048183;28;20119;-73
2022/06/20 04:27:07;;;;;;;5.57;2.25;;;;;;;19.06;62.17;99745.84;5019678;28;20081;-74
2022/06/20 04:29:42;;;;;;;6.32;2.10;;;;;;;19.16;62.11;99750.25;5036643;28;20053;-74
2022/06/20 04:32:11;;;;;;;4.95;1.95;;;;;;;19.33;61.27;99758.56;5029549;28;20131;-75
2022/06/20 04:34:55;;;;;;;4.72;2.10;;;;;;;19.37;61.66;99759.94;5043357;28;20101;-74
2022/06/20 04:37:43;;;;;;;3.40;2.10;;;;;;;19.38;62.09;99780.44;5036473;28;20085;-74
2022/06/20 04:40:25;;;;;;;5.03;2.00;;;;;;;19.36;61.23;99785.94;5022905;28;20134;-74
2022/06/20 04:42:57;;;;;;;4.20;2.13;;;;;;;19.39;61.43;99785.66;5040658;28;20046;-74
2022/06/20 04:45:46;;;;;;;6.22;2.20;;;;;;;19.37;60.88;99797.53;5029458;28;20040;-74
2022/06/20 04:48:16;;;;;;;4.28;2.03;;;;;;;19.31;61.15;99835.72;5026995;28;20049;-74
2022/06/20 04:51:06;;;;;;;7.03;2.72;;;;;;;19.11;62.76;99916.22;5029757;28;20100;-75
2022/06/20 04:53:44;;;;;;;6.75;2.22;;;;;;;18.96;63.61;99908.69;5025365;28;20050;-74
2022/06/20 04:56:13;;;;;;;5.65;2.05;;;;;;;18.86;64.00;99876.47;5020329;28;20140;-74
2022/06/20 04:58:52;;;;;;;4.25;2.08;;;;;;;18.88;63.91;99861.09;5026180;28;20436;-75
2022/06/20 05:01:20;;;;;;;4.53;2.00;;;;;;;18.89;63.76;99868.97;5021003;28;20057;-74
2022/06/20 05:03:55;;;;;;;6.32;2.03;;;;;;;18.80;63.95;99855.56;5027404;28;20497;-75
2022/06/20 05:06:26;;;;;;;4.25;2.65;;;;;;;19.00;63.48;99864.50;5020551;28;20579;-75
2022/06/20 05:09:06;;;;;;;5.85;2.72;;;;;;;18.94;63.79;99857.84;5019858;28;20041;-73
2022/06/20 05:11:41;;;;;;;7.75;2.58;;;;;;;19.11;63.53;99873.25;5026211;28;20042;-74
2022/06/20 05:14:13;;;;;;;3.65;2.22;;;;;;;19.19;63.01;99865.38;5022570;28;20061;-74
2022/06/20 05:16:49;;;;;;;7.13;2.40;;;;;;;19.24;62.99;99836.25;5045513;28;20453;-74
2022/06/20 05:19:25;;;;;;;5.30;2.00;;;;;;;19.30;62.43;99844.75;5028329;28;20076;-74
2022/06/20 05:21:56;;;;;;;5.53;2.00;;;;;;;19.25;62.72;99843.31;5028227;28;20137;-76
2022/06/20 05:24:28;;;;;;;4.38;2.03;;;;;;;19.28;62.84;99820.72;5019238;28;20050;-76
2022/06/20 05:26:55;;;;;;;4.72;1.98;;;;;;;19.39;62.43;99831.31;5020146;28;20690;-75
2022/06/20 05:29:31;;;;;;;7.03;2.25;;;;;;;19.44;62.65;99845.19;5024128;28;20060;-74
2022/06/20 05:32:04;;;;;;;6.97;2.45;;;;;;;19.45;62.08;99864.81;5022539;28;20069;-73
2022/06/20 05:34:50;;;;;;;5.57;2.05;;;;;;;19.48;61.94;99891.41;5016910;28;20172;-74
2022/06/20 05:37:25;;;;;;;8.07;2.58;;;;;;;19.47;62.50;99889.69;5023306;28;20057;-74
2022/06/20 05:39:59;;;;;;;6.93;2.60;;;;;;;19.40;62.07;99888.53;5020668;28;20430;-74
2022/06/20 05:42:26;;;;;;;4.10;2.15;;;;;;;19.39;62.68;99889.53;5024560;28;20045;-74
2022/06/20 05:44:53;;;;;;;6.18;2.45;;;;;;;19.44;62.79;99909.63;5024410;28;20093;-74
2022/06/20 05:47:30;;;;;;;7.85;2.13;;;;;;;19.40;62.46;99883.19;5023457;28;20152;-75
2022/06/20 05:50:01;;;;;;;6.97;2.50;;;;;;;19.56;62.90;99880.81;5015712;28;20088;-75
2022/06/20 05:52:30;;;;;;;4.38;2.20;;;;;;;19.44;63.59;99889.97;5020151;28;20049;-75
2022/06/20 05:55:04;;;;;;;6.15;2.55;;;;;;;19.66;65.72;99916.59;5028850;28;20141;-74
2022/06/20 05:57:34;;;;;;;7.35;2.67;;;;;;;19.79;66.48;99895.66;5026416;28;20079;-76
2022/06/20 06:00:16;;;;;;;5.55;2.45;;;;;;;19.76;65.96;99890.56;5026091;28;20122;-74
2022/06/20 06:02:58;;;;;;;6.07;2.35;;;;;;;19.74;66.78;99892.53;5031885;28;20072;-76
2022/06/20 06:06:13;;;;;;;7.85;2.80;;;;;;;19.78;69.03;99899.34;5046083;28;20067;-78
2022/06/20 06:09:02;;;;;;;7.50;2.60;;;;;;;19.88;68.05;99894.78;5047591;28;20104;-77
2022/06/20 06:11:37;;;;;;;6.10;2.42;;;;;;;19.79;68.74;99901.03;5030777;28;20045;-76
2022/06/20 06:14:21;;;;;;;8.40;3.15;;;;;;;19.76;71.79;99900.47;5032769;28;20058;-76
2022/06/20 06:16:56;;;;;;;13.30;4.28;;;;;;;19.59;72.75;99910.94;5050343;28;20112;-75
2022/06/20 06:19:25;;;;;;;10.23;3.70;;;;;;;19.52;76.05;99912.47;5043345;28;20124;-75
2022/06/20 06:21:53;;;;;;;10.32;3.47;;;;;;;19.45;75.59;99907.78;5030542;28;20369;-75
2022/06/20 06:24:24;;;;;;;6.80;2.80;;;;;;;19.34;72.81;99922.19;5027026;28;20073;-76
2022/06/20 06:26:56;;;;;;;15.30;3.58;;;;;;;19.18;73.95;99909.31;5028864;28;20053;-76
2022/06/20 06:29:29;;;;;;;5.65;3.15;;;;;;;19.33;74.46;99933.91;5024392;28;20127;-77
2022/06/20 06:32:03;;;;;;;7.95;3.50;;;;;;;19.32;72.37;99945.66;5029040;28;20061;-76
2022/06/20 06:34:32;;;;;;;8.35;3.10;;;;;;;19.32;74.23;99953.69;5020503;28;20046;-76
2022/06/20 06:37:07;;;;;;;9.82;3.05;;;;;;;19.25;72.90;99950.72;5030233;28;20132;-76
2022/06/20 06:39:49;;;;;;;6.25;3.30;;;;;;;19.21;74.24;99954.66;5023608;28;22254;-75
2022/06/20 06:42:20;;;;;;;9.43;3.03;;;;;;;19.08;74.38;99921.84;5028607;28;20128;-75
2022/06/20 06:44:50;;;;;;;9.50;3.55;;;;;;;19.42;77.71;99910.75;5028237;28;20048;-74
2022/06/20 06:47:31;;;;;;;9.45;3.40;;;;;;;19.59;77.03;99893.97;5021525;28;20056;-76
2022/06/20 06:50:14;;;;;;;7.90;3.22;;;;;;;19.48;75.10;99886.03;5017392;28;20045;-75
2022/06/20 06:52:50;;;;;;;9.65;3.30;;;;;;;19.46;76.13;99847.72;5043021;28;20069;-75
2022/06/20 06:55:17;;;;;;;10.80;3.83;;;;;;;19.52;77.67;99831.91;5039139;28;20109;-75
2022/06/20 06:57:49;;;;;;;11.60;3.92;;;;;;;19.55;78.73;99831.63;5037716;28;20049;-76
2022/06/20 07:00:20;;;;;;;8.07;3.30;;;;;;;19.41;78.03;99804.31;5025334;28;20085;-75
2022/06/20 07:02:58;;;;;;;20.50;3.92;;;;;;;19.48;78.22;99835.00;5036951;28;20057;-75
2022/06/20 07:05:38;;;;;;;6.95;3.47;;;;;;;19.44;79.49;99866.66;5036940;28;20503;-75
2022/06/20 07:08:11;;;;;;;9.80;3.83;;;;;;;19.44;80.59;99887.28;5046463;28;20049;-77
2022/06/20 07:10:47;;;;;;;11.38;3.92;;;;;;;19.48;81.95;99904.81;5030111;28;20468;-78
2022/06/20 07:13:23;;;;;;;9.43;3.85;;;;;;;19.55;82.06;99905.97;5027501;28;20042;-75
2022/06/20 07:15:55;;;;;;;10.18;3.97;;;;;;;19.64;80.16;99912.34;5023489;28;20050;-76
2022/06/20 07:18:38;;;;;;;8.70;3.28;;;;;;;19.66;78.95;99900.47;5027149;28;20128;-75
2022/06/20 07:21:05;;;;;;;7.78;3.30;;;;;;;19.70;77.77;99911.75;5028049;28;20065;-76
2022/06/20 07:23:34;;;;;;;8.00;3.60;;;;;;;19.80;77.46;99934.97;5024360;28;20382;-77
2022/06/20 07:26:01;;;;;;;10.27;3.40;;;;;;;19.71;77.89;99929.59;5022311;28;20064;-75
2022/06/20 07:28:36;;;;;;;7.75;3.67;;;;;;;19.79;79.22;99916.31;5019351;28;20061;-75
2022/06/20 07:31:24;;;;;;;8.43;3.67;;;;;;;19.90;78.82;99905.41;5031392;28;20053;-76
2022/06/20 07:33:56;;;;;;;7.40;3.28;;;;;;;20.01;77.73;99915.13;5039875;28;20118;-75
2022/06/20 07:36:32;;;;;;;8.45;3.10;;;;;;;20.05;77.37;99905.78;5045425;28;20037;-75
2022/06/20 07:39:03;;;;;;;7.47;3.60;;;;;;;20.10;78.07;99901.69;5024017;28;20068;-77
2022/06/20 07:41:41;;;;;;;8.82;3.78;;;;;;;20.04;77.18;99891.50;5016631;28;20041;-73
2022/06/20 07:44:33;;;;;;;7.68;3.50;;;;;;;20.30;79.04;99906.00;5018332;28;20080;-75
2022/06/20 07:47:15;;;;;;;8.35;3.70;;;;;;;20.39;77.05;99882.81;5023263;28;20053;-78
2022/06/20 07:49:55;;;;;;;7.15;3.53;;;;;;;20.51;74.49;99894.22;5043963;28;20048;-74
2022/06/20 07:52:30;;;;;;;;;;;;;;;20.57;75.84;99907.94;5028777;28;20068;-74
2022/06/20 07:55:02;;;;;;;7.85;3.72;;;;;;;20.56;75.72;99911.63;5028248;28;19929;-75
2022/06/20 07:57:44;;;;;;;7.28;3.70;;;;;;;20.50;75.89;99920.28;5028739;28;20504;-75
2022/06/20 08:00:17;;;;;;;9.75;3.92;;;;;;;20.30;76.99;99922.13;5024009;28;20140;-76
2022/06/20 08:03:21;;;;;;;9.45;3.92;;;;;;;20.14;77.31;99943.44;5042784;28;20063;-77
2022/06/20 08:05:55;;;;;;;11.02;4.65;;;;;;;19.85;79.50;99948.81;5028250;28;20051;-75
2022/06/20 08:08:32;;;;;;;10.98;4.70;;;;;;;19.76;82.17;99965.78;5016875;28;20073;-75
2022/06/20 08:11:40;;;;;;;9.63;4.50;;;;;;;19.61;82.37;99981.47;5019457;28;20053;-75
2022/06/20 08:14:25;;;;;;;9.00;4.15;;;;;;;19.30;81.01;99987.88;5015856;28;20054;-76
2022/06/20 08:16:57;;;;;;;7.78;4.13;;;;;;;19.31;82.33;99989.59;5031625;28;20041;-74
2022/06/20 08:19:24;;;;;;;8.77;4.35;;;;;;;19.23;83.10;99971.47;5015555;28;20108;-75
2022/06/20 08:21:59;;;;;;;6.95;4.50;;;;;;;19.39;82.97;99988.88;5017093;28;20045;-76
2022/06/20 08:24:35;;;;;;;7.35;4.20;;;;;;;19.29;83.25;99994.25;5011722;28;20052;-76
2022/06/20 08:27:10;;;;;;;6.50;3.70;;;;;;;19.14;83.63;99964.25;5017060;28;20139;-76
2022/06/20 08:29:47;;;;;;;6.70;4.10;;;;;;;19.28;84.92;99979.97;5014346;28;20049;-74
2022/06/20 08:32:36;;;;;;;8.68;4.50;;;;;;;19.40;85.48;99979.84;5020385;28;20103;-77
2022/06/20 08:35:41;;;;;;;7.15;5.00;;;;;;;19.45;86.02;99991.88;5014894;28;21113;-74
2022/06/20 08:38:32;;;;;;;7.70;3.97;;;;;;;19.49;87.06;99989.78;4988450;28;20566;-74
2022/06/20 08:41:09;;;;;;;8.65;4.15;;;;;;;19.58;85.05;100005.06;5020505;28;20079;-74
2022/06/20 08:44:24;;;;;;;9.20;4.28;;;;;;;19.55;83.03;100005.34;5014675;28;20795;-78
2022/06/20 08:47:01;;;;;;;8.80;4.10;;;;;;;19.19;83.78;99940.53;5017522;28;20046;-75
2022/06/20 08:49:52;;;;;;;9.55;3.72;;;;;;;19.51;84.29;99995.88;5020385;28;20053;-77
2022/06/20 08:53:05;;;;;;;10.45;5.15;;;;;;;19.45;84.13;99999.94;5031287;28;20719;-76
2022/06/20 08:55:35;;;;;;;10.65;4.30;;;;;;;19.49;84.70;100011.25;4985039;28;20058;-75
2022/06/20 08:58:09;;;;;;;9.27;4.57;;;;;;;19.49;84.41;100027.38;5011138;28;20510;-75
2022/06/20 09:00:46;;;;;;;8.18;4.28;;;;;;;19.42;85.87;100035.09;5015787;28;20191;-77
2022/06/20 09:03:28;;;;;;;7.63;4.10;;;;;;;19.23;86.22;100052.00;5025397;28;20061;-74
2022/06/20 09:06:25;;;;;;;8.00;4.70;;;;;;;19.05;88.21;100050.06;5019055;28;20129;-76
2022/06/20 09:09:07;;;;;;;7.57;4.68;;;;;;;18.92;88.83;100061.88;5016632;28;20052;-78
2022/06/20 09:11:46;;;;;;;4.20;3.20;;;;;;;18.87;89.05;100074.03;5013195;28;20041;-76
2022/06/20 09:14:50;;;;;;;2.38;2.03;;;;;;;18.79;86.17;100080.03;5026851;28;20050;-76
2022/06/20 09:17:33;;;;;;;2.85;1.90;;;;;;;18.62;84.27;100085.13;5061636;28;20071;-75
2022/06/20 09:20:14;;;;;;;2.28;1.55;;;;;;;18.54;84.70;100093.81;5044909;28;20052;-78
2022/06/20 09:23:03;;;;;;;2.90;1.30;;;;;;;18.46;83.55;100078.34;5049992;28;20567;-75
2022/06/20 09:25:44;;;;;;;2.10;1.20;;;;;;;18.50;84.17;100082.50;5033691;28;20065;-76
2022/06/20 09:28:18;;;;;;;2.92;1.50;;;;;;;18.63;84.88;100087.69;5022843;28;20108;-77
2022/06/20 09:31:14;;;;;;;2.10;1.30;;;;;;;18.70;84.14;100096.94;5021144;28;20069;-75
2022/06/20 09:33:44;;;;;;;2.33;1.20;;;;;;;18.72;82.34;100103.00;5019207;28;20056;-76
2022/06/20 09:36:26;;;;;;;1.67;1.38;;;;;;;18.64;82.42;100099.28;5023742;28;20092;-77
2022/06/20 09:39:13;;;;;;;1.98;1.50;;;;;;;18.48;83.08;100078.22;5037059;28;20484;-77
2022/06/20 09:41:49;;;;;;;1.88;1.45;;;;;;;18.66;82.72;100108.03;5038075;28;20053;-76
2022/06/20 09:44:35;;;;;;;2.47;1.17;;;;;;;18.58;80.87;100114.00;5024811;28;20814;-75
2022/06/20 09:47:07;;;;;;;1.30;1.02;;;;;;;18.54;81.90;100128.69;5042883;28;20179;-75
2022/06/20 09:50:14;;;;;;;1.20;1.10;;;;;;;18.41;81.31;100109.25;5037827;28;20048;-74
2022/06/20 09:52:58;;;;;;;1.20;1.10;;;;;;;18.51;81.88;100134.28;4946773;28;20075;-75
2022/06/20 09:55:39;;;;;;;1.30;1.17;;;;;;;18.58;81.57;100147.06;5015159;28;20401;-75
2022/06/20 09:58:40;;;;;;;0.95;0.95;;;;;;;18.51;80.65;100163.78;5043083;28;20053;-75
2022/06/20 10:01:24;;;;;;;1.15;1.05;;;;;;;18.37;81.92;100162.25;5050836;28;20122;-77
2022/06/20 10:04:06;;;;;;;2.28;1.20;;;;;;;18.39;82.07;100160.31;5050096;28;20044;-74
2022/06/20 10:07:08;;;;;;;1.15;1.02;;;;;;;18.39;81.74;100144.22;5050842;28;20143;-77
2022/06/20 10:09:49;;;;;;;2.67;1.00;;;;;;;18.54;80.50;100163.53;5038649;28;20075;-75
2022/06/20 10:12:31;;;;;;;1.52;1.10;;;;;;;18.52;78.82;100163.66;5047249;28;20052;-76
2022/06/20 10:15:20;;;;;;;2.50;1.23;;;;;;;18.58;76.72;100168.53;5037574;28;20111;-74
2022/06/20 10:17:53;;;;;;;1.10;1.00;;;;;;;18.52;77.50;100174.38;5048772;28;20080;-74
2022/06/20 10:20:37;;;;;;;3.47;1.40;;;;;;;18.52;77.88;100181.56;5046173;28;20053;-75
2022/06/20 10:23:16;;;;;;;1.40;1.30;;;;;;;18.49;77.62;100188.03;5044306;28;20049;-74
2022/06/20 10:26:02;;;;;;;1.80;1.50;;;;;;;18.35;75.48;100182.97;5038738;28;20056;-75
2022/06/20 10:28:55;;;;;;;1.88;1.58;;;;;;;18.35;75.92;100195.53;5038373;28;20056;-73
2022/06/20 10:31:36;;;;;;;1.83;1.73;;;;;;;18.16;75.55;100180.09;5043605;28;20085;-75
2022/06/20 10:34:12;;;;;;;1.85;1.60;;;;;;;18.15;76.41;100195.31;5054291;28;20045;-74
2022/06/20 10:36:50;;;;;;;1.90;1.80;;;;;;;18.18;75.99;100196.91;5047870;28;20046;-76
2022/06/20 10:39:56;;;;;;;2.17;1.52;;;;;;;18.16;75.06;100197.03;5044708;28;20069;-75
2022/06/20 10:42:52;;;;;;;1.45;1.35;;;;;;;17.96;74.99;100170.13;5039476;28;20450;-75
2022/06/20 10:45:27;;;;;;;2.00;1.67;;;;;;;18.13;74.92;100217.84;5038558;28;20965;-72
2022/06/20 10:48:21;;;;;;;2.45;1.40;;;;;;;18.10;74.82;100220.81;5058709;28;20045;-74
2022/06/20 10:50:53;;;;;;;1.60;1.33;;;;;;;18.00;75.64;100228.72;5030262;28;20404;-75
2022/06/20 10:53:35;;;;;;;2.25;1.50;;;;;;;17.92;75.70;100208.91;5042785;28;20420;-73
2022/06/20 10:56:04;;;;;;;1.75;1.17;;;;;;;17.82;76.13;100220.31;5035264;28;20065;-74
2022/06/20 10:59:01;;;;;;;3.83;1.33;;;;;;;17.77;76.36;100206.47;5041147;28;20500;-74
2022/06/20 11:01:50;;;;;;;1.60;1.50;;;;;;;17.90;76.62;100226.91;5040112;28;20041;-75
2022/06/20 11:04:26;;;;;;;1.58;1.48;;;;;;;17.92;76.54;100224.97;5040687;28;20501;-74
2022/06/20 11:07:13;;;;;;;1.45;1.35;;;;;;;17.99;76.60;100220.81;5048140;28;20114;-74
2022/06/20 11:10:03;;;;;;;1.33;1.23;;;;;;;18.05;76.08;100231.03;5041565;28;20045;-74
2022/06/20 11:12:49;;;;;;;2.58;1.42;;;;;;;18.11;75.93;100230.53;5047092;28;20061;-74
2022/06/20 11:15:22;;;;;;;1.30;1.20;;;;;;;18.12;76.07;100237.59;5044734;28;20053;-74
2022/06/20 11:17:59;;;;;;;1.67;1.40;;;;;;;18.06;75.47;100222.88;5042949;28;20045;-77
2022/06/20 11:20:44;;;;;;;1.50;1.40;;;;;;;18.00;75.92;100230.53;5047981;28;20041;-75
2022/06/20 11:23:19;;;;;;;4.47;1.65;;;;;;;17.77;77.72;100235.06;5049231;28;20060;-74
2022/06/20 11:26:05;;;;;;;2.25;1.55;;;;;;;17.37;79.96;100232.81;5047888;28;20106;-75
2022/06/20 11:28:44;;;;;;;2.35;1.55;;;;;;;17.14;83.44;100261.34;5040836;28;20049;-75
2022/06/20 11:31:48;;;;;;;2.47;1.70;;;;;;;16.80;85.25;100256.84;5045693;28;20057;-76
2022/06/20 11:34:46;;;;;;;2.28;2.08;;;;;;;16.55;88.96;100265.78;5041209;28;20049;-75
2022/06/20 11:37:33;;;;;;;1.48;1.38;;;;;;;16.26;88.67;100275.94;5040404;28;20076;-75
2022/06/20 11:40:15;;;;;;;1.60;1.50;;;;;;;16.16;89.88;100272.22;5041446;28;20081;-75
2022/06/20 11:43:06;;;;;;;2.40;1.20;;;;;;;16.07;88.11;100283.56;5038765;28;20098;-75
2022/06/20 11:45:52;;;;;;;7.38;1.33;;;;;;;15.98;87.22;100293.09;5041344;28;20921;-75
2022/06/20 11:48:24;;;;;;;2.35;1.67;;;;;;;15.94;87.66;100288.91;5038845;28;20056;-74
2022/06/20 11:51:18;;;;;;;2.78;2.35;;;;;;;16.07;88.96;100288.88;5046680;28;20051;-74
2022/06/20 11:54:14;;;;;;;2.15;1.77;;;;;;;16.19;88.71;100296.06;5044270;28;20049;-74
2022/06/20 11:56:52;;;;;;;2.25;1.20;;;;;;;16.27;90.09;100293.66;5043823;28;20057;-74
2022/06/20 11:59:33;;;;;;;1.48;1.38;;;;;;;16.30;91.37;100298.78;5043962;28;20102;-74
2022/06/20 12:02:39;;;;;;;3.30;1.40;;;;;;;16.44;92.37;100303.13;5051369;28;20462;-74
2022/06/20 12:05:18;;;;;;;2.22;1.13;;;;;;;16.57;93.94;100314.63;5052708;28;20059;-74
2022/06/20 12:08:28;;;;;;;1.42;1.15;;;;;;;16.71;94.03;100319.00;5050324;28;20049;-73
2022/06/20 12:10:59;;;;;;;2.67;1.20;;;;;;;16.87;93.89;100324.94;5022084;28;20119;-73
2022/06/20 12:14:00;;;;;;;1.20;1.00;;;;;;;17.04;91.12;100315.66;5034897;28;20041;-73
2022/06/20 12:16:42;;;;;;;1.50;0.85;;;;;;;17.18;88.35;100297.59;5046891;28;20758;-73
2022/06/20 12:25:17;;;;;;;0.82;0.82;;;;;;;17.76;76.78;100303.84;5031107;28;20057;-74
2022/06/20 12:27:46;;;;;;;1.63;0.90;;;;;;;17.77;73.71;100310.94;5018634;28;20056;-75
2022/06/20 12:30:15;;;;;;;1.38;0.80;;;;;;;17.72;75.25;100304.22;5014974;28;20053;-77
2022/06/20 12:32:46;;;;;;;1.88;1.00;;;;;;;17.90;76.00;100323.34;5013645;28;20057;-75